Etusivu
METAR-TAF:

METAR-TAF

Lentoasemat :

Giddings-Lee County Airport

Giddings, Texas, Yhdysvallat

Leveyspiiri: 30-10-09N, Pituuspiiri: 096-58-48W, korkeus merenpinnasta: 148 m

Tämänhetkinen sää

Tämä raportti tehtiin 30 minuuttia sitten, kello 16.15 UTC
Tuuli 10 kn etelästä/lounaasta puuskistuen 15 kn:hen
Lämpötila 33°C
Kosteus 53%
Ilmanpaine 1019 hPa
Näkyvyys: 16.1 km
selkeää

METAR: KGYB 101615Z AUTO 20010G15KT 10SM CLR 33/22 A3010 RMK AO2 T03300222

Aika: 11:45 (16:45 UTC)


TAF: puuttuu

Säähavainnot ja -ennusteet yli 4000 lentoasemalta (METAR- ja TAF-raportit).

Käytössä olevat sääasemat on merkitty karttaan keltaisilla ja punaisilla pisteillä.

Aseta hiiri pisteen päälle nähdäksesi sääaseman nimen.

Klikkaa sitten nähdäksesi säähavainnot ja -ennusteet.

Kartan vaihtaminen: klikkaa mustalla rastilla varustettuja vihreitä pisteitä, niin voit zoomata sisään; viivalla varustettua vihreää pistettä, niin voit zoomata ulos tai vihreitä nuolia, niin pääset viereisille kartoille.


METAR-TAF: